Time;durP1;ratioP1;P1;durP2;ratioP2;P2;SDS_P1;SDS_P2;PMS_P1;PMS_P2;Temp;Humidity;BMP_temperature;BMP_pressure;BME280_temperature;BME280_humidity;BME280_pressure;Samples;Min_cycle;Max_cycle;Signal;HPM_P1;HPM_P2
2024/01/29 00:44:56;;;;;;;1.10;1.00;;;;;;;6.87;62.29;101924.31;6228370;22;20107;-87
2024/01/29 00:47:22;;;;;;;1.83;1.30;;;;;;;7.11;60.45;101913.41;6206949;23;20031;-86
2024/01/29 00:49:48;;;;;;;2.00;0.93;;;;;;;7.09;60.29;101911.03;6235287;23;20000;-86
2024/01/29 00:52:13;;;;;;;1.20;1.08;;;;;;;7.10;60.66;101915.28;6198911;22;20145;-86
2024/01/29 00:54:40;;;;;;;1.50;1.13;;;;;;;7.19;59.51;101902.78;6242147;22;20014;-87
2024/01/29 00:57:10;;;;;;;1.17;0.73;;;;;;;7.19;59.83;101908.16;6227164;22;20011;-87
2024/01/29 00:59:35;;;;;;;2.08;0.93;;;;;;;7.15;59.31;101892.97;6292590;22;20003;-87
2024/01/29 01:02:01;;;;;;;2.58;1.27;;;;;;;7.08;60.08;101897.94;6282485;22;20015;-84
2024/01/29 01:04:27;;;;;;;0.95;0.50;;;;;;;7.18;59.21;101898.50;6253676;22;20054;-86
2024/01/29 01:06:55;;;;;;;0.85;0.70;;;;;;;7.28;58.39;101909.00;6218728;22;20628;-86
2024/01/29 01:09:20;;;;;;;1.27;0.93;;;;;;;7.32;58.29;101896.59;6244907;22;20018;-85
2024/01/29 01:11:46;;;;;;;1.17;0.80;;;;;;;7.25;58.19;101901.59;6258315;22;20016;-86
2024/01/29 01:14:11;;;;;;;1.75;1.08;;;;;;;7.32;57.99;101903.06;6276705;22;20003;-86
2024/01/29 01:16:37;;;;;;;2.33;0.77;;;;;;;7.38;57.49;101908.00;6244607;22;20150;-86
2024/01/29 01:19:02;;;;;;;2.83;1.02;;;;;;;7.38;57.62;101891.91;6240041;22;19998;-87
2024/01/29 01:21:28;;;;;;;0.90;0.82;;;;;;;7.45;57.26;101886.16;6213485;22;20038;-86
2024/01/29 01:23:53;;;;;;;2.10;0.90;;;;;;;7.46;57.14;101882.38;6240620;22;20000;-86
2024/01/29 01:26:18;;;;;;;1.02;0.80;;;;;;;7.33;57.68;101886.69;6251565;22;20003;-87
2024/01/29 01:28:44;;;;;;;2.20;0.80;;;;;;;7.42;57.10;101881.38;6244769;22;20000;-86
2024/01/29 01:31:10;;;;;;;1.13;0.88;;;;;;;7.45;57.42;101875.44;6222505;22;20020;-86
2024/01/29 01:33:35;;;;;;;0.80;0.80;;;;;;;7.48;56.86;101889.00;6240895;22;20430;-86
2024/01/29 01:36:01;;;;;;;1.35;0.90;;;;;;;7.50;56.85;101876.09;6235156;22;20011;-86
2024/01/29 01:38:27;;;;;;;1.80;0.80;;;;;;;7.57;56.38;101870.34;6260120;22;19999;-86
2024/01/29 01:40:52;;;;;;;2.38;0.82;;;;;;;7.61;56.24;101873.97;6248762;22;20600;-86
2024/01/29 01:43:21;;;;;;;0.90;0.90;;;;;;;7.54;56.41;101871.72;6230513;22;20010;-86
2024/01/29 01:46:22;;;;;;;2.90;1.13;;;;;;;7.61;55.90;101871.28;6248441;22;20091;-85
2024/01/29 01:48:49;;;;;;;1.48;0.82;;;;;;;7.56;56.31;101876.78;6248804;22;20844;-86
2024/01/29 01:51:15;;;;;;;2.03;0.80;;;;;;;7.59;56.39;101873.50;6249589;22;20037;-86
2024/01/29 01:53:42;;;;;;;1.42;0.70;;;;;;;7.67;55.48;101878.09;6224374;22;20012;-86
2024/01/29 01:56:07;;;;;;;0.60;0.60;;;;;;;7.56;55.82;101874.09;6233636;22;20493;-86
2024/01/29 01:58:34;;;;;;;9.70;1.13;;;;;;;7.55;56.01;101869.84;6224468;22;20058;-87
2024/01/29 02:00:59;;;;;;;0.85;0.80;;;;;;;7.67;55.76;101875.44;6198233;22;20041;-86
2024/01/29 02:03:28;;;;;;;1.98;0.73;;;;;;;7.70;55.47;101877.53;6198576;22;20016;-85
2024/01/29 02:05:55;;;;;;;0.82;0.80;;;;;;;7.69;55.69;101871.34;6199349;22;20046;-86
2024/01/29 02:08:21;;;;;;;1.10;1.00;;;;;;;7.71;55.06;101882.56;6261698;22;20000;-86
2024/01/29 02:10:47;;;;;;;4.43;0.77;;;;;;;7.61;55.46;101873.97;6248013;22;20069;-87
2024/01/29 02:13:13;;;;;;;3.05;1.23;;;;;;;7.66;55.49;101877.34;6230934;22;20019;-86
2024/01/29 02:15:39;;;;;;;1.70;0.85;;;;;;;7.65;55.66;101891.03;6206151;22;20003;-86
2024/01/29 02:18:05;;;;;;;0.88;0.70;;;;;;;7.66;55.25;101892.63;6250831;22;20042;-86
2024/01/29 02:20:34;;;;;;;1.40;0.75;;;;;;;7.69;55.33;101886.66;6241536;22;20015;-86
2024/01/29 02:23:18;;;;;;;2.85;1.17;;;;;;;7.57;55.47;101894.47;6270584;22;20011;-85
2024/01/29 02:25:43;;;;;;;1.45;1.27;;;;;;;7.60;55.37;101899.19;6217720;22;20515;-87
2024/01/29 02:28:15;;;;;;;0.95;0.73;;;;;;;7.52;55.70;101892.69;6242282;22;20018;-87
2024/01/29 02:30:43;;;;;;;;;;;;;;;7.41;56.11;101891.34;6205458;22;20015;-87
2024/01/29 02:33:09;;;;;;;2.03;0.70;;;;;;;7.45;56.11;101886.94;6202910;22;19961;-87
2024/01/29 02:35:40;;;;;;;0.77;0.70;;;;;;;7.42;56.13;101884.88;6271662;22;20019;-87
2024/01/29 02:38:08;;;;;;;1.13;0.63;;;;;;;7.24;56.10;101881.25;6216696;22;20004;-87
2024/01/29 02:40:39;;;;;;;0.68;0.68;;;;;;;7.19;56.00;101875.22;6254815;22;20085;-86
2024/01/29 02:43:11;;;;;;;0.90;0.80;;;;;;;7.22;56.19;101877.25;6217694;22;20015;-86
2024/01/29 02:45:44;;;;;;;1.23;0.80;;;;;;;7.21;56.29;101884.53;6238769;22;20041;-87
2024/01/29 02:48:12;;;;;;;1.38;0.95;;;;;;;7.27;55.84;101880.66;6238819;22;20012;-86
2024/01/29 02:50:41;;;;;;;2.50;0.88;;;;;;;7.20;56.14;101892.88;6240660;22;20012;-87
2024/01/29 02:53:11;;;;;;;1.40;1.08;;;;;;;7.35;55.49;101897.09;6216038;22;20110;-86
2024/01/29 02:55:37;;;;;;;2.00;1.10;;;;;;;7.34;55.20;101893.63;6215341;22;20349;-86
2024/01/29 02:58:11;;;;;;;4.30;0.93;;;;;;;7.13;55.67;101885.25;6243187;22;20016;-87
2024/01/29 03:00:37;;;;;;;0.50;0.50;;;;;;;7.27;55.17;101894.03;6240785;22;20337;-86
2024/01/29 03:03:06;;;;;;;1.00;0.60;;;;;;;7.31;54.78;101891.56;6267724;22;20090;-84
2024/01/29 03:05:31;;;;;;;1.13;0.90;;;;;;;7.17;55.37;101888.09;6241203;22;20015;-86
2024/01/29 03:08:00;;;;;;;0.95;0.82;;;;;;;7.21;55.36;101897.94;6253200;22;20065;-86
2024/01/29 03:10:26;;;;;;;0.73;0.57;;;;;;;7.24;55.45;101893.84;6244919;22;20018;-87
2024/01/29 03:12:56;;;;;;;1.38;0.80;;;;;;;7.38;54.91;101899.97;6256002;22;20008;-86
2024/01/29 03:15:22;;;;;;;0.55;0.55;;;;;;;7.38;54.79;101894.59;6215813;22;20012;-87
2024/01/29 03:17:53;;;;;;;0.88;0.82;;;;;;;7.29;54.74;101883.81;6239874;22;20015;-86
2024/01/29 03:20:19;;;;;;;0.60;0.60;;;;;;;7.20;55.36;101896.31;6246394;22;20015;-87
2024/01/29 03:22:45;;;;;;;0.80;0.70;;;;;;;7.20;54.99;101890.19;6242783;22;20099;-86
2024/01/29 03:25:13;;;;;;;1.17;0.80;;;;;;;7.42;53.87;101898.25;6241048;22;20012;-85
2024/01/29 03:27:39;;;;;;;0.55;0.55;;;;;;;7.31;54.41;101891.56;6242641;22;20423;-85
2024/01/29 03:30:05;;;;;;;3.97;0.80;;;;;;;7.40;54.63;101894.28;6214724;22;20018;-85
2024/01/29 03:32:31;;;;;;;1.20;0.82;;;;;;;7.19;54.58;101886.72;6237668;22;20035;-85
2024/01/29 03:34:56;;;;;;;1.33;1.02;;;;;;;7.17;54.92;101885.44;6213076;22;20011;-86
2024/01/29 03:37:25;;;;;;;0.68;0.60;;;;;;;7.36;54.59;101882.59;6233654;22;20008;-86
2024/01/29 03:40:00;;;;;;;0.50;0.50;;;;;;;7.32;54.28;101883.19;6240907;22;20004;-86
2024/01/29 03:42:25;;;;;;;1.58;0.80;;;;;;;7.31;54.22;101883.50;6249655;22;20073;-85
2024/01/29 03:44:51;;;;;;;1.48;0.90;;;;;;;7.35;54.13;101872.97;6248299;22;20309;-85
2024/01/29 03:47:20;;;;;;;1.20;0.82;;;;;;;7.27;54.39;101880.66;6231616;22;20000;-85
2024/01/29 03:49:51;;;;;;;1.42;0.82;;;;;;;7.19;53.96;101880.56;6262722;22;20047;-85
2024/01/29 03:52:16;;;;;;;1.65;0.82;;;;;;;7.24;54.67;101875.88;6198956;22;20022;-84
2024/01/29 03:54:45;;;;;;;0.90;0.50;;;;;;;7.42;53.25;101876.03;6220513;22;20011;-85
2024/01/29 03:57:10;;;;;;;2.25;0.70;;;;;;;7.30;53.38;101866.63;6257704;22;20531;-83
2024/01/29 03:59:36;;;;;;;1.15;0.77;;;;;;;7.29;53.91;101866.94;6228351;22;20003;-84
2024/01/29 04:02:02;;;;;;;1.80;0.73;;;;;;;7.28;54.27;101873.38;6237146;22;20472;-83
2024/01/29 04:04:42;;;;;;;0.77;0.70;;;;;;;7.29;53.73;101874.97;6251878;22;20022;-83
2024/01/29 04:10:45;;;;;;;2.10;0.52;;;;;;;7.17;54.10;101864.00;6263797;22;20552;-83
2024/01/29 04:13:10;;;;;;;1.67;1.02;;;;;;;7.21;53.85;101857.75;6225079;22;20012;-83
2024/01/29 04:15:38;;;;;;;0.63;0.60;;;;;;;7.31;53.57;101856.72;6262111;22;20000;-83
2024/01/29 04:18:04;;;;;;;0.68;0.68;;;;;;;7.08;54.07;101861.22;6255076;22;20362;-83
2024/01/29 04:20:29;;;;;;;0.82;0.50;;;;;;;7.18;54.06;101855.66;6295812;22;20046;-83
2024/01/29 04:22:55;;;;;;;0.80;0.80;;;;;;;7.17;53.98;101858.63;6239752;22;20025;-84
2024/01/29 04:25:21;;;;;;;1.10;0.80;;;;;;;7.06;54.54;101858.09;6248366;22;20469;-83
2024/01/29 04:27:47;;;;;;;2.40;0.70;;;;;;;7.20;54.04;101858.06;6287704;22;20008;-83
2024/01/29 04:30:13;;;;;;;0.82;0.70;;;;;;;7.18;54.51;101858.34;6225557;22;20004;-84
2024/01/29 04:32:38;;;;;;;0.85;0.82;;;;;;;7.12;54.40;101850.72;6250309;22;20018;-83
2024/01/29 04:35:04;;;;;;;1.65;0.80;;;;;;;7.16;53.97;101852.47;6305089;22;19996;-82
2024/01/29 04:37:32;;;;;;;1.27;0.80;;;;;;;7.08;54.34;101844.38;6293918;22;20058;-83
2024/01/29 04:39:57;;;;;;;1.77;0.95;;;;;;;7.00;54.96;101848.56;6249317;22;20023;-84
2024/01/29 04:42:23;;;;;;;3.28;0.88;;;;;;;6.86;54.92;101837.09;6260580;22;20069;-84
2024/01/29 04:44:48;;;;;;;0.60;0.60;;;;;;;6.89;54.83;101838.38;6222681;22;20093;-84
2024/01/29 04:47:16;;;;;;;0.60;0.60;;;;;;;6.91;55.40;101834.28;6248279;22;19995;-83
2024/01/29 04:49:44;;;;;;;0.65;0.65;;;;;;;7.07;54.72;101842.78;6273924;22;20064;-83
2024/01/29 04:52:11;;;;;;;1.13;0.80;;;;;;;7.01;54.97;101833.28;6224326;22;20004;-83
2024/01/29 04:54:40;;;;;;;0.85;0.70;;;;;;;7.01;54.67;101841.31;6244930;22;20045;-85
2024/01/29 04:57:08;;;;;;;1.17;1.00;;;;;;;6.99;54.98;101830.09;6221763;22;20012;-84
2024/01/29 04:59:33;;;;;;;2.20;0.68;;;;;;;6.93;54.72;101845.50;6284689;22;20517;-83
2024/01/29 05:01:59;;;;;;;1.15;0.70;;;;;;;6.92;54.93;101846.59;6242730;22;20035;-83
2024/01/29 05:04:24;;;;;;;1.13;0.93;;;;;;;6.91;54.90;101841.56;6218135;22;20012;-83
2024/01/29 05:06:52;;;;;;;3.15;1.10;;;;;;;6.97;54.28;101849.16;6271660;22;20027;-84
2024/01/29 05:09:19;;;;;;;0.70;0.68;;;;;;;6.80;55.39;101843.63;6219095;22;20054;-83
2024/01/29 05:11:44;;;;;;;0.47;0.47;;;;;;;6.80;55.29;101837.50;6247371;22;20014;-84
2024/01/29 05:14:10;;;;;;;1.83;0.80;;;;;;;6.88;55.18;101842.13;6246875;22;20015;-83
2024/01/29 05:16:35;;;;;;;1.27;0.90;;;;;;;6.81;55.28;101839.88;6244949;22;20010;-83
2024/01/29 05:19:03;;;;;;;3.50;1.42;;;;;;;6.69;55.86;101842.28;6254206;22;20054;-82
2024/01/29 05:21:29;;;;;;;2.25;1.35;;;;;;;6.62;56.20;101831.16;6279691;22;20011;-83
2024/01/29 05:23:54;;;;;;;4.13;1.38;;;;;;;6.68;55.87;101848.69;6269849;22;20015;-84
2024/01/29 05:26:20;;;;;;;1.35;1.13;;;;;;;6.61;56.11;101842.16;6275065;22;20011;-84
2024/01/29 05:28:45;;;;;;;1.35;0.90;;;;;;;6.65;55.98;101846.63;6284965;22;20008;-84
2024/01/29 05:31:11;;;;;;;1.58;1.10;;;;;;;6.70;55.25;101849.19;6245581;22;20053;-82
2024/01/29 05:33:39;;;;;;;2.67;0.90;;;;;;;6.60;55.91;101848.63;6243043;22;20464;-84
2024/01/29 05:36:14;;;;;;;1.52;1.10;;;;;;;6.73;55.13;101847.81;6246159;22;20018;-83
2024/01/29 05:38:40;;;;;;;0.85;0.85;;;;;;;6.84;54.87;101851.84;6242466;22;20011;-83
2024/01/29 05:41:05;;;;;;;1.58;1.13;;;;;;;6.71;55.25;101845.44;6244991;22;19999;-84
2024/01/29 05:43:31;;;;;;;1.88;1.40;;;;;;;6.66;55.45;101840.19;6220955;22;20015;-83
2024/01/29 05:45:57;;;;;;;1.40;1.30;;;;;;;6.64;55.83;101841.59;6245746;22;20061;-83
2024/01/29 05:48:22;;;;;;;4.53;1.00;;;;;;;6.57;55.41;101844.66;6247053;22;20004;-84
2024/01/29 05:50:48;;;;;;;0.75;0.70;;;;;;;6.54;55.55;101839.91;6283466;22;20008;-83
2024/01/29 05:53:13;;;;;;;1.90;1.42;;;;;;;6.48;56.28;101845.66;6269957;22;20011;-83
2024/01/29 05:55:39;;;;;;;2.05;0.90;;;;;;;6.59;55.48;101829.09;6243430;22;20095;-83
2024/01/29 05:58:07;;;;;;;3.75;1.13;;;;;;;6.77;54.63;101830.88;6218190;22;20003;-83
2024/01/29 06:00:33;;;;;;;2.60;1.35;;;;;;;6.77;54.56;101838.91;6283561;22;20380;-83
2024/01/29 06:02:58;;;;;;;0.75;0.75;;;;;;;6.78;54.37;101834.31;6246741;22;20016;-83
2024/01/29 06:05:24;;;;;;;1.92;1.30;;;;;;;6.70;54.82;101832.34;6272252;22;20015;-83
2024/01/29 06:07:51;;;;;;;4.75;1.20;;;;;;;6.69;55.26;101836.91;6274477;22;20007;-83
2024/01/29 06:10:16;;;;;;;0.80;0.80;;;;;;;6.68;55.27;101832.66;6274559;22;20078;-84
2024/01/29 06:12:42;;;;;;;1.20;1.10;;;;;;;6.63;54.93;101830.09;6284348;22;20054;-83
2024/01/29 06:15:08;;;;;;;2.60;1.13;;;;;;;6.74;54.92;101830.66;6272593;22;20030;-83
2024/01/29 06:17:36;;;;;;;3.20;1.30;;;;;;;6.66;55.09;101824.13;6243645;22;20004;-82
2024/01/29 06:20:03;;;;;;;0.80;0.80;;;;;;;6.58;55.51;101819.47;6271245;22;20007;-84
2024/01/29 06:22:28;;;;;;;1.38;0.90;;;;;;;6.56;55.82;101815.53;6219108;22;20015;-83
2024/01/29 06:24:54;;;;;;;1.75;0.90;;;;;;;6.69;54.56;101812.84;6221206;22;20367;-84
2024/01/29 06:27:31;;;;;;;1.27;1.02;;;;;;;6.57;54.98;101822.44;6220757;22;20457;-83
2024/01/29 06:29:59;;;;;;;1.88;1.20;;;;;;;6.69;54.59;101823.53;6276210;22;20076;-83
2024/01/29 06:32:25;;;;;;;1.63;1.45;;;;;;;6.63;55.08;101827.41;6246093;22;20019;-84
2024/01/29 06:34:56;;;;;;;0.88;0.88;;;;;;;6.66;54.69;101826.03;6241597;22;20021;-84
2024/01/29 06:37:22;;;;;;;;;;;;;;;6.62;55.46;101811.66;6243235;22;20022;-85
2024/01/29 06:39:47;;;;;;;1.27;0.80;;;;;;;6.65;55.10;101803.81;6244160;22;19911;-85
2024/01/29 06:50:23;;;;;;;0.73;0.73;;;;;;;6.69;54.30;101804.81;6205043;22;20032;-85
2024/01/29 06:52:49;;;;;;;0.40;0.40;;;;;;;6.70;54.13;101808.25;6173192;23;20015;-84
2024/01/29 06:55:17;;;;;;;0.60;0.60;;;;;;;6.60;54.97;101813.84;6172748;23;20459;-83
2024/01/29 06:57:43;;;;;;;2.28;1.20;;;;;;;6.70;53.93;101830.47;6198287;23;20351;-85
2024/01/29 07:00:09;;;;;;;1.30;1.00;;;;;;;6.70;54.40;101817.06;6173518;23;20017;-86
2024/01/29 07:02:35;;;;;;;2.38;1.35;;;;;;;6.66;54.44;101823.34;6199019;23;20009;-85
2024/01/29 07:05:00;;;;;;;4.72;0.90;;;;;;;6.52;55.22;101828.72;6176546;23;20019;-84
2024/01/29 07:07:26;;;;;;;1.25;0.95;;;;;;;6.44;55.49;101829.41;6199105;23;20279;-86
2024/01/29 07:09:54;;;;;;;1.17;0.95;;;;;;;6.38;56.36;101814.53;6199218;23;20056;-86
2024/01/29 07:12:20;;;;;;;4.65;1.00;;;;;;;6.56;55.14;101818.19;6198622;23;20023;-84
2024/01/29 07:14:45;;;;;;;1.52;0.85;;;;;;;6.61;54.96;101826.13;6174441;23;20005;-85
2024/01/29 07:17:11;;;;;;;3.10;0.82;;;;;;;6.65;54.32;101819.88;6174095;23;20013;-86
2024/01/29 07:19:36;;;;;;;1.92;0.80;;;;;;;6.57;54.95;101831.28;6173851;23;20001;-84
2024/01/29 07:22:08;;;;;;;1.40;0.90;;;;;;;6.56;54.22;101831.59;6175492;23;20016;-83
2024/01/29 07:24:36;;;;;;;3.35;0.90;;;;;;;6.72;53.38;101824.81;6199304;23;20035;-84
2024/01/29 07:27:02;;;;;;;0.70;0.70;;;;;;;6.65;54.07;101827.91;6226708;23;20386;-84
2024/01/29 07:29:29;;;;;;;2.60;1.48;;;;;;;6.71;53.85;101826.72;6227965;23;20004;-84
2024/01/29 07:31:56;;;;;;;8.98;1.42;;;;;;;6.64;54.68;101825.53;6224333;23;20013;-85
2024/01/29 07:34:22;;;;;;;2.95;1.10;;;;;;;6.61;55.00;101823.44;6196910;23;20024;-85
2024/01/29 07:36:47;;;;;;;1.38;0.88;;;;;;;6.61;54.87;101832.25;6172919;23;20023;-87
2024/01/29 07:39:13;;;;;;;1.85;1.10;;;;;;;6.73;54.22;101834.44;6225745;23;20009;-84
2024/01/29 07:41:39;;;;;;;0.50;0.50;;;;;;;6.63;54.35;101840.78;6174224;23;20000;-84
2024/01/29 07:44:05;;;;;;;1.35;1.00;;;;;;;6.54;54.87;101834.56;6226845;23;19999;-84
2024/01/29 07:46:30;;;;;;;1.65;1.27;;;;;;;6.69;55.06;101836.91;6174697;23;20047;-87
2024/01/29 07:48:56;;;;;;;2.40;1.50;;;;;;;6.61;54.78;101842.16;6225779;22;19992;-85
2024/01/29 07:51:22;;;;;;;2.38;1.20;;;;;;;6.63;55.35;101838.13;6172961;23;20044;-87
2024/01/29 07:53:47;;;;;;;1.52;1.30;;;;;;;6.68;55.40;101835.31;6198630;23;20013;-86
2024/01/29 07:56:13;;;;;;;5.68;1.63;;;;;;;6.81;54.57;101841.75;6198262;23;20101;-85
2024/01/29 07:58:38;;;;;;;1.65;1.27;;;;;;;6.94;54.50;101849.78;6174123;23;20008;-87
2024/01/29 08:01:04;;;;;;;2.40;1.23;;;;;;;6.90;54.88;101848.00;6223833;23;20119;-86
2024/01/29 08:03:29;;;;;;;1.77;1.15;;;;;;;6.90;54.95;101843.44;6174633;23;20000;-84
2024/01/29 08:05:55;;;;;;;3.05;1.77;;;;;;;7.10;54.26;101845.66;6197876;23;20013;-84
2024/01/29 08:08:20;;;;;;;4.32;0.80;;;;;;;7.05;54.71;101850.34;6172290;23;20040;-84
2024/01/29 08:10:47;;;;;;;1.33;0.60;;;;;;;7.16;53.81;101857.84;6173029;23;20091;-85
2024/01/29 08:13:13;;;;;;;1.35;1.00;;;;;;;7.17;54.24;101864.00;6224632;23;20023;-84
2024/01/29 08:15:39;;;;;;;1.60;0.63;;;;;;;7.35;53.35;101860.38;6197957;23;20076;-84
2024/01/29 08:18:05;;;;;;;2.35;1.08;;;;;;;7.38;53.49;101856.28;6198340;23;20001;-84
2024/01/29 08:20:31;;;;;;;2.85;1.20;;;;;;;7.38;53.61;101853.59;6198411;23;20015;-83
2024/01/29 08:22:56;;;;;;;1.23;1.00;;;;;;;7.42;53.21;101857.25;6174319;23;20012;-84
2024/01/29 08:25:22;;;;;;;1.90;0.93;;;;;;;7.46;53.09;101856.38;6173113;23;20030;-85
2024/01/29 08:27:48;;;;;;;1.15;0.85;;;;;;;7.42;53.46;101866.09;6199272;23;20005;-87
2024/01/29 08:30:14;;;;;;;1.88;1.00;;;;;;;7.47;53.88;101867.88;6198799;23;20012;-86
2024/01/29 08:32:41;;;;;;;1.17;0.93;;;;;;;7.55;53.24;101864.47;6227435;23;20005;-85
2024/01/29 08:35:07;;;;;;;0.77;0.68;;;;;;;7.70;52.79;101867.59;6178582;23;20326;-86
2024/01/29 08:37:33;;;;;;;1.00;0.77;;;;;;;7.71;52.16;101863.81;6179564;23;20013;-85
2024/01/29 08:39:58;;;;;;;1.80;0.73;;;;;;;7.60;52.94;101867.84;6179820;23;20013;-87
2024/01/29 08:42:24;;;;;;;2.40;1.00;;;;;;;7.48;53.62;101858.75;6229963;23;20437;-85
2024/01/29 08:44:49;;;;;;;1.02;0.93;;;;;;;7.50;53.99;101861.91;6201290;23;20014;-87
2024/01/29 08:47:15;;;;;;;0.57;0.57;;;;;;;7.49;53.93;101861.09;6227372;23;20021;-86
2024/01/29 08:49:40;;;;;;;0.60;0.60;;;;;;;7.56;53.80;101853.44;6199803;23;20009;-84
2024/01/29 08:52:06;;;;;;;0.77;0.63;;;;;;;7.66;54.13;101860.47;6199773;23;20435;-84
2024/01/29 08:54:31;;;;;;;0.88;0.55;;;;;;;7.80;53.85;101858.50;6200401;23;20019;-84
2024/01/29 08:57:00;;;;;;;0.60;0.60;;;;;;;8.01;53.78;101860.34;6193256;23;20019;-85
2024/01/29 08:59:29;;;;;;;1.35;0.88;;;;;;;8.17;52.99;101866.91;6216966;23;20086;-85
2024/01/29 09:01:57;;;;;;;2.25;1.05;;;;;;;8.39;52.97;101874.16;6194735;23;20507;-84
2024/01/29 09:04:22;;;;;;;1.13;0.80;;;;;;;8.51;52.23;101871.69;6172005;23;20024;-85
2024/01/29 09:06:48;;;;;;;1.52;0.77;;;;;;;8.68;52.28;101871.72;6171030;23;20083;-84
2024/01/29 09:09:14;;;;;;;5.47;0.73;;;;;;;8.89;51.18;101867.38;6216912;23;20013;-87
2024/01/29 09:11:39;;;;;;;0.73;0.68;;;;;;;8.96;51.61;101875.75;6192232;23;20012;-85
2024/01/29 09:14:05;;;;;;;0.90;0.63;;;;;;;9.19;50.87;101879.13;6196550;23;20055;-84
2024/01/29 09:16:32;;;;;;;0.85;0.85;;;;;;;9.23;51.03;101877.38;6203078;23;20027;-86
2024/01/29 09:18:58;;;;;;;2.83;0.88;;;;;;;9.43;49.96;101871.38;6201435;23;20072;-85
2024/01/29 09:21:25;;;;;;;0.82;0.75;;;;;;;9.49;50.38;101870.09;6177105;23;20005;-84
2024/01/29 09:23:50;;;;;;;0.95;0.88;;;;;;;9.54;50.20;101877.22;6197378;23;20004;-84
2024/01/29 09:26:16;;;;;;;1.27;1.02;;;;;;;9.57;50.77;101877.38;6199380;23;20094;-84
2024/01/29 09:28:43;;;;;;;1.40;1.13;;;;;;;9.59;50.73;101877.06;6174832;23;20012;-84
2024/01/29 09:31:09;;;;;;;0.70;0.60;;;;;;;9.67;50.60;101870.88;6227106;23;20123;-84
2024/01/29 09:33:35;;;;;;;0.80;0.65;;;;;;;9.62;51.08;101874.50;6199877;23;20008;-84
2024/01/29 09:36:02;;;;;;;1.45;1.08;;;;;;;9.73;50.53;101872.31;6175258;23;20286;-84
2024/01/29 09:38:27;;;;;;;2.65;1.35;;;;;;;9.80;50.04;101870.72;6176705;23;20040;-84
2024/01/29 09:40:54;;;;;;;1.25;1.00;;;;;;;9.92;50.06;101875.44;6173446;23;20028;-85
2024/01/29 09:43:21;;;;;;;1.17;1.00;;;;;;;9.99;49.74;101863.06;6195897;23;20370;-85
2024/01/29 09:45:49;;;;;;;0.75;0.70;;;;;;;10.21;48.80;101863.97;6223807;23;20068;-85
2024/01/29 09:48:15;;;;;;;1.60;1.15;;;;;;;10.17;49.01;101863.84;6208144;23;20027;-84
2024/01/29 09:50:43;;;;;;;1.38;0.98;;;;;;;10.20;48.92;101882.03;6173226;23;20443;-84
2024/01/29 09:53:10;;;;;;;1.10;0.73;;;;;;;10.19;49.35;101883.16;6201620;23;20080;-85
2024/01/29 09:55:35;;;;;;;0.50;0.50;;;;;;;10.29;49.36;101876.63;6176727;23;20031;-84
2024/01/29 09:58:01;;;;;;;0.60;0.60;;;;;;;10.40;49.46;101886.72;6199743;23;20005;-84
2024/01/29 10:00:26;;;;;;;2.13;0.77;;;;;;;10.48;49.09;101896.66;6228446;23;20426;-85
2024/01/29 10:02:54;;;;;;;1.08;0.70;;;;;;;10.57;48.95;101897.41;6201495;23;20028;-84
2024/01/29 10:05:19;;;;;;;1.30;1.00;;;;;;;10.77;48.46;101898.59;6176537;23;20529;-84
2024/01/29 10:07:45;;;;;;;0.88;0.70;;;;;;;10.82;47.96;101901.91;6201385;23;20091;-84
2024/01/29 10:10:11;;;;;;;0.82;0.50;;;;;;;10.82;48.37;101904.59;6211949;23;20008;-84
2024/01/29 10:12:37;;;;;;;1.42;0.70;;;;;;;11.00;47.56;101909.88;6212040;23;20086;-86
2024/01/29 10:15:04;;;;;;;0.50;0.50;;;;;;;11.18;47.28;101916.75;6227634;23;20024;-86
2024/01/29 10:17:29;;;;;;;0.55;0.52;;;;;;;11.23;47.13;101917.34;6172781;23;20020;-83
2024/01/29 10:19:55;;;;;;;0.60;0.60;;;;;;;11.17;47.28;101915.97;6193566;23;20324;-85
2024/01/29 10:22:26;;;;;;;1.08;0.70;;;;;;;11.23;47.55;101921.94;6196128;23;20016;-84
2024/01/29 10:25:00;;;;;;;;;;;;;;;11.15;47.37;101920.88;6197443;23;20016;-85
2024/01/29 10:27:26;;;;;;;0.82;0.65;;;;;;;11.17;47.12;101931.38;6224089;23;19934;-84
2024/01/29 10:29:51;;;;;;;1.13;0.70;;;;;;;11.41;46.41;101918.03;6224309;23;20135;-84
2024/01/29 10:32:20;;;;;;;0.60;0.60;;;;;;;11.32;47.13;101917.31;6195525;23;20078;-85
2024/01/29 10:34:45;;;;;;;0.88;0.70;;;;;;;11.38;47.37;101926.78;6172169;23;20347;-84
2024/01/29 10:37:11;;;;;;;0.98;0.60;;;;;;;11.49;47.18;101920.66;6171442;23;20000;-83
2024/01/29 10:39:39;;;;;;;2.47;0.95;;;;;;;11.47;46.83;101925.59;6172043;23;20013;-84
2024/01/29 10:42:07;;;;;;;0.82;0.70;;;;;;;11.36;46.67;101920.91;6172652;23;20009;-84
2024/01/29 10:44:35;;;;;;;1.45;0.68;;;;;;;11.43;46.89;101921.97;6193703;23;20048;-86
2024/01/29 10:47:08;;;;;;;0.82;0.60;;;;;;;11.41;47.15;101920.72;6195893;23;20008;-83
2024/01/29 10:49:35;;;;;;;0.68;0.60;;;;;;;11.52;46.47;101917.28;6172478;23;20008;-85
2024/01/29 10:52:03;;;;;;;0.45;0.40;;;;;;;11.45;46.58;101917.03;6173186;23;20091;-84
2024/01/29 10:54:32;;;;;;;0.60;0.60;;;;;;;11.34;47.00;101917.75;6225584;23;20013;-84
2024/01/29 10:56:59;;;;;;;5.10;0.70;;;;;;;11.42;46.96;101917.69;6170061;23;20000;-87
2024/01/29 10:59:26;;;;;;;0.88;0.88;;;;;;;11.34;47.85;101920.47;6194923;23;20009;-84
2024/01/29 11:01:52;;;;;;;0.60;0.60;;;;;;;11.40;48.22;101916.44;6219727;23;20032;-84
2024/01/29 11:04:19;;;;;;;6.43;1.00;;;;;;;11.55;48.12;101921.25;6194566;23;20039;-84
2024/01/29 11:06:54;;;;;;;1.15;1.00;;;;;;;11.53;47.21;101920.78;6170803;23;20020;-87
2024/01/29 11:09:24;;;;;;;2.80;0.70;;;;;;;11.60;48.00;101915.63;6193767;23;20091;-85
2024/01/29 11:11:52;;;;;;;1.65;1.05;;;;;;;11.69;47.29;101917.19;6194958;23;20009;-84
2024/01/29 11:14:24;;;;;;;2.85;1.00;;;;;;;11.68;48.17;101920.22;6174103;23;20001;-86
2024/01/29 11:16:52;;;;;;;0.80;0.80;;;;;;;11.81;47.75;101912.97;6196644;23;20116;-86
2024/01/29 11:19:23;;;;;;;1.02;0.85;;;;;;;11.63;48.53;101915.00;6196873;23;20434;-85
2024/01/29 11:21:52;;;;;;;0.82;0.82;;;;;;;11.73;48.48;101914.59;6203204;23;20028;-85
2024/01/29 11:24:21;;;;;;;1.95;0.70;;;;;;;11.75;48.49;101917.75;6172390;23;20001;-85
2024/01/29 11:26:47;;;;;;;1.15;0.80;;;;;;;11.69;48.56;101908.31;6196701;23;20360;-85
2024/01/29 11:29:18;;;;;;;1.15;0.63;;;;;;;11.83;48.60;101914.19;6195926;23;20019;-85
2024/01/29 11:31:45;;;;;;;1.10;1.00;;;;;;;12.00;48.51;101903.22;6175260;23;20020;-85
2024/01/29 11:34:13;;;;;;;2.53;1.02;;;;;;;11.89;48.98;101907.47;6228308;23;20011;-85
2024/01/29 11:36:39;;;;;;;0.88;0.70;;;;;;;11.91;48.87;101904.44;6236585;23;20032;-86
2024/01/29 11:39:05;;;;;;;1.00;0.63;;;;;;;12.04;48.42;101900.69;6174854;23;20005;-83
2024/01/29 11:41:35;;;;;;;1.98;1.00;;;;;;;12.00;48.81;101905.16;6200872;23;19997;-83
2024/01/29 11:44:02;;;;;;;2.38;0.90;;;;;;;11.86;49.21;101896.56;6228312;23;20058;-84
2024/01/29 11:46:28;;;;;;;1.55;0.80;;;;;;;11.74;49.21;101903.50;6198424;23;20012;-84
2024/01/29 11:49:00;;;;;;;1.15;0.70;;;;;;;11.82;50.04;101901.84;6227054;23;20023;-83
2024/01/29 11:51:29;;;;;;;1.13;0.88;;;;;;;11.81;49.96;101902.94;6200112;23;20009;-83
2024/01/29 11:53:55;;;;;;;0.88;0.80;;;;;;;11.78;50.42;101900.91;6175931;23;20095;-86
2024/01/29 11:56:20;;;;;;;1.00;0.90;;;;;;;11.70;49.80;101896.38;6175824;23;20008;-84
2024/01/29 11:59:11;;;;;;;1.38;0.70;;;;;;;11.72;49.91;101899.53;6198328;23;20016;-85
2024/01/29 12:01:36;;;;;;;5.10;1.10;;;;;;;11.70;50.31;101904.47;6199098;23;20017;-86
2024/01/29 12:04:02;;;;;;;1.40;1.00;;;;;;;11.71;50.16;101900.69;6173515;23;21008;-85
2024/01/29 12:06:31;;;;;;;1.58;0.73;;;;;;;11.72;49.82;101911.13;6175199;23;20004;-85
2024/01/29 12:08:57;;;;;;;1.52;0.93;;;;;;;11.78;50.23;101909.03;6175663;23;20009;-84
2024/01/29 12:11:25;;;;;;;1.65;1.00;;;;;;;11.82;49.89;101907.22;6199597;23;20348;-85
2024/01/29 12:13:55;;;;;;;2.40;1.05;;;;;;;11.68;50.71;101901.31;6174573;23;20004;-86
2024/01/29 12:16:22;;;;;;;0.82;0.73;;;;;;;11.82;50.58;101898.34;6198696;23;20012;-84
2024/01/29 12:18:48;;;;;;;1.27;0.98;;;;;;;11.90;50.05;101897.47;6226281;23;20046;-84
2024/01/29 12:21:14;;;;;;;1.70;1.10;;;;;;;12.05;50.40;101903.03;6200404;23;19997;-84
2024/01/29 12:23:40;;;;;;;0.98;0.80;;;;;;;11.94;50.30;101901.09;6199884;23;20032;-86
2024/01/29 12:26:05;;;;;;;0.88;0.73;;;;;;;11.86;51.02;101897.34;6202375;23;20013;-83